Terminal Aerodrome Forecast
Issued by NWS Los Angeles, CA

Home | Current Version | Previous Version | Text Only | Print | Product List | Glossary On
Versions: 1 2 3 4 5 6 7 8 9 10 11 12 13 14 15 16
222
FTUS46 KLOX 241724
TAFSMX
TAF
KSMX 241724Z 2418/2518 31014KT P6SM BKN200
     FM242000 31025G35KT P6SM BKN200
     FM250200 31014KT P6SM BKN200
     FM251000 32008KT P6SM BKN025
     FM251600 32012KT P6SM SCT025=

USA.gov is the U.S. government's official web portal to all federal, state and local government web resources and services.